AQQ10 IFIS: Internet Flight Information System
logo dgac
Martes 21 de Septiembre del 2021
Buscar por aerodromo o helipuerto
Ingrese nombre de aeródromo, localidad o designador OACI:
METAR del 21-09-2021 a las 12:00 UTC
Para mayor información visite www.meteochile.cl
METAR SCIE 211200Z 10003KT 040V130 CAVOK 09/07 Q1013
Viento: dirección 100 grados, velocidad 3 nudos
Viento con dirección variable entre 040 y 130 grados
Visibilidad: 10 km o más,
    sin nubes bajo los 5.000 pies o bajo del MSA (Mínimo de Seguridad del Aeródromo),
    sin cumulonimbus, y sin fenómenos de tiempo significativo en el aeródromo o alrededores
Temperatura: 9 °C
Rocío: 7 °C
Humedad_relativa: 87%
Presión: 1013 hPa
METAR del 21-09-2021 a las 12:00 UTC
Para mayor información visite www.meteochile.cl
METAR SCIE 211200Z 10003KT 040V130 CAVOK 09/07 Q1013
Viento: dirección 100 grados, velocidad 3 nudos
Viento con dirección variable entre 040 y 130 grados
Visibilidad: 10 km o más,
    sin nubes bajo los 5.000 pies o bajo del MSA (Mínimo de Seguridad del Aeródromo),
    sin cumulonimbus, y sin fenómenos de tiempo significativo en el aeródromo o alrededores
Temperatura: 9 °C
Rocío: 7 °C
Humedad_relativa: 87%
Presión: 1013 hPa
METAR del 21-09-2021 a las 11:00 UTC
Para mayor información visite www.meteochile.cl
METAR SCIE 211100Z 08003KT CAVOK 05/05 Q1012
Viento: dirección 080 grados, velocidad 3 nudos
Visibilidad: 10 km o más,
    sin nubes bajo los 5.000 pies o bajo del MSA (Mínimo de Seguridad del Aeródromo),
    sin cumulonimbus, y sin fenómenos de tiempo significativo en el aeródromo o alrededores
Temperatura: 5 °C
Rocío: 5 °C
Humedad_relativa: 100%
Presión: 1012 hPa
METAR del 21-09-2021 a las 11:00 UTC
Para mayor información visite www.meteochile.cl
METAR SCIE 211100Z 08003KT CAVOK 05/05 Q1012
Viento: dirección 080 grados, velocidad 3 nudos
Visibilidad: 10 km o más,
    sin nubes bajo los 5.000 pies o bajo del MSA (Mínimo de Seguridad del Aeródromo),
    sin cumulonimbus, y sin fenómenos de tiempo significativo en el aeródromo o alrededores
Temperatura: 5 °C
Rocío: 5 °C
Humedad_relativa: 100%
Presión: 1012 hPa
METAR del 21-09-2021 a las 10:00 UTC
Para mayor información visite www.meteochile.cl
METAR SCIE 211000Z 17002KT CAVOK 06/06 Q1011
Viento: dirección 170 grados, velocidad 2 nudos
Visibilidad: 10 km o más,
    sin nubes bajo los 5.000 pies o bajo del MSA (Mínimo de Seguridad del Aeródromo),
    sin cumulonimbus, y sin fenómenos de tiempo significativo en el aeródromo o alrededores
Temperatura: 6 °C
Rocío: 6 °C
Humedad_relativa: 100%
Presión: 1011 hPa
METAR del 21-09-2021 a las 09:00 UTC
Para mayor información visite www.meteochile.cl
METAR SCIE 210900Z 20005KT CAVOK 07/07 Q1011
Viento: dirección 200 grados, velocidad 5 nudos
Visibilidad: 10 km o más,
    sin nubes bajo los 5.000 pies o bajo del MSA (Mínimo de Seguridad del Aeródromo),
    sin cumulonimbus, y sin fenómenos de tiempo significativo en el aeródromo o alrededores
Temperatura: 7 °C
Rocío: 7 °C
Humedad_relativa: 100%
Presión: 1011 hPa
METAR del 21-09-2021 a las 08:00 UTC
Para mayor información visite www.meteochile.cl
METAR SCIE 210800Z 21004KT CAVOK 08/07 Q1011
Viento: dirección 210 grados, velocidad 4 nudos
Visibilidad: 10 km o más,
    sin nubes bajo los 5.000 pies o bajo del MSA (Mínimo de Seguridad del Aeródromo),
    sin cumulonimbus, y sin fenómenos de tiempo significativo en el aeródromo o alrededores
Temperatura: 8 °C
Rocío: 7 °C
Humedad_relativa: 93%
Presión: 1011 hPa
METAR del 21-09-2021 a las 07:00 UTC
Para mayor información visite www.meteochile.cl
METAR SCIE 210700Z 20006KT CAVOK 09/07 Q1012
Viento: dirección 200 grados, velocidad 6 nudos
Visibilidad: 10 km o más,
    sin nubes bajo los 5.000 pies o bajo del MSA (Mínimo de Seguridad del Aeródromo),
    sin cumulonimbus, y sin fenómenos de tiempo significativo en el aeródromo o alrededores
Temperatura: 9 °C
Rocío: 7 °C
Humedad_relativa: 87%
Presión: 1012 hPa
METAR del 21-09-2021 a las 06:00 UTC
Para mayor información visite www.meteochile.cl
METAR SCIE 210600Z 21006KT CAVOK 10/08 Q1013
Viento: dirección 210 grados, velocidad 6 nudos
Visibilidad: 10 km o más,
    sin nubes bajo los 5.000 pies o bajo del MSA (Mínimo de Seguridad del Aeródromo),
    sin cumulonimbus, y sin fenómenos de tiempo significativo en el aeródromo o alrededores
Temperatura: 10 °C
Rocío: 8 °C
Humedad_relativa: 87%
Presión: 1013 hPa
METAR del 21-09-2021 a las 05:00 UTC
Para mayor información visite www.meteochile.cl
METAR SCIE 210500Z 21008KT CAVOK 10/08 Q1014
Viento: dirección 210 grados, velocidad 8 nudos
Visibilidad: 10 km o más,
    sin nubes bajo los 5.000 pies o bajo del MSA (Mínimo de Seguridad del Aeródromo),
    sin cumulonimbus, y sin fenómenos de tiempo significativo en el aeródromo o alrededores
Temperatura: 10 °C
Rocío: 8 °C
Humedad_relativa: 87%
Presión: 1014 hPa